sensor_id;sensor_type;location;lat;lon;timestamp;P1;durP1;ratioP1;P2;durP2;ratioP2
12784;SDS011;6456;42.680;23.260;2024-03-22T00:01:53;13.10;;;6.60;;
12784;SDS011;6456;42.680;23.260;2024-03-22T00:04:29;12.60;;;6.83;;
12784;SDS011;6456;42.680;23.260;2024-03-22T00:06:56;12.23;;;7.10;;
12784;SDS011;6456;42.680;23.260;2024-03-22T00:09:34;10.50;;;7.03;;
12784;SDS011;6456;42.680;23.260;2024-03-22T00:12:08;12.30;;;7.50;;
12784;SDS011;6456;42.680;23.260;2024-03-22T00:14:43;11.60;;;7.07;;
12784;SDS011;6456;42.680;23.260;2024-03-22T00:17:09;14.67;;;7.87;;
12784;SDS011;6456;42.680;23.260;2024-03-22T00:19:39;11.00;;;7.47;;
12784;SDS011;6456;42.680;23.260;2024-03-22T00:22:10;11.40;;;7.37;;
12784;SDS011;6456;42.680;23.260;2024-03-22T00:24:37;13.80;;;7.73;;
12784;SDS011;6456;42.680;23.260;2024-03-22T00:27:03;15.60;;;8.97;;
12784;SDS011;6456;42.680;23.260;2024-03-22T00:29:32;24.10;;;10.20;;
12784;SDS011;6456;42.680;23.260;2024-03-22T00:31:58;14.00;;;8.83;;
12784;SDS011;6456;42.680;23.260;2024-03-22T00:34:25;18.53;;;10.17;;
12784;SDS011;6456;42.680;23.260;2024-03-22T00:36:51;17.03;;;9.90;;
12784;SDS011;6456;42.680;23.260;2024-03-22T00:39:18;19.03;;;10.07;;
12784;SDS011;6456;42.680;23.260;2024-03-22T00:41:44;14.00;;;9.23;;
12784;SDS011;6456;42.680;23.260;2024-03-22T00:44:11;11.97;;;7.70;;
12784;SDS011;6456;42.680;23.260;2024-03-22T00:46:39;12.13;;;8.17;;
12784;SDS011;6456;42.680;23.260;2024-03-22T00:49:06;11.93;;;7.07;;
12784;SDS011;6456;42.680;23.260;2024-03-22T00:51:32;13.03;;;7.20;;
12784;SDS011;6456;42.680;23.260;2024-03-22T00:53:59;14.10;;;6.40;;
12784;SDS011;6456;42.680;23.260;2024-03-22T00:56:25;11.43;;;6.97;;
12784;SDS011;6456;42.680;23.260;2024-03-22T00:58:52;17.53;;;10.53;;
12784;SDS011;6456;42.680;23.260;2024-03-22T01:01:18;20.13;;;10.23;;
12784;SDS011;6456;42.680;23.260;2024-03-22T01:03:46;16.83;;;9.50;;
12784;SDS011;6456;42.680;23.260;2024-03-22T01:06:12;13.03;;;8.93;;
12784;SDS011;6456;42.680;23.260;2024-03-22T01:08:39;16.00;;;9.50;;
12784;SDS011;6456;42.680;23.260;2024-03-22T01:11:05;13.63;;;9.33;;
12784;SDS011;6456;42.680;23.260;2024-03-22T01:13:33;15.33;;;9.60;;
12784;SDS011;6456;42.680;23.260;2024-03-22T01:15:59;17.77;;;10.97;;
12784;SDS011;6456;42.680;23.260;2024-03-22T01:18:25;17.93;;;9.80;;
12784;SDS011;6456;42.680;23.260;2024-03-22T01:20:53;14.17;;;9.50;;
12784;SDS011;6456;42.680;23.260;2024-03-22T01:23:20;13.77;;;9.33;;
12784;SDS011;6456;42.680;23.260;2024-03-22T01:25:46;13.80;;;9.37;;
12784;SDS011;6456;42.680;23.260;2024-03-22T01:28:13;13.43;;;9.43;;
12784;SDS011;6456;42.680;23.260;2024-03-22T01:30:40;12.63;;;9.67;;
12784;SDS011;6456;42.680;23.260;2024-03-22T01:33:09;16.07;;;10.00;;
12784;SDS011;6456;42.680;23.260;2024-03-22T01:35:35;12.37;;;8.77;;
12784;SDS011;6456;42.680;23.260;2024-03-22T01:38:03;12.77;;;8.70;;
12784;SDS011;6456;42.680;23.260;2024-03-22T01:40:29;15.20;;;10.13;;
12784;SDS011;6456;42.680;23.260;2024-03-22T01:42:56;16.27;;;10.40;;
12784;SDS011;6456;42.680;23.260;2024-03-22T01:45:23;11.93;;;8.77;;
12784;SDS011;6456;42.680;23.260;2024-03-22T01:47:50;11.67;;;8.47;;
12784;SDS011;6456;42.680;23.260;2024-03-22T01:50:19;16.00;;;9.33;;
12784;SDS011;6456;42.680;23.260;2024-03-22T01:52:46;14.03;;;8.40;;
12784;SDS011;6456;42.680;23.260;2024-03-22T01:55:14;14.43;;;9.47;;
12784;SDS011;6456;42.680;23.260;2024-03-22T01:57:41;15.43;;;8.70;;
12784;SDS011;6456;42.680;23.260;2024-03-22T02:00:08;11.00;;;7.93;;
12784;SDS011;6456;42.680;23.260;2024-03-22T02:02:36;13.43;;;8.97;;
12784;SDS011;6456;42.680;23.260;2024-03-22T02:05:11;12.93;;;7.87;;
12784;SDS011;6456;42.680;23.260;2024-03-22T02:07:38;15.07;;;8.77;;
12784;SDS011;6456;42.680;23.260;2024-03-22T02:10:04;12.00;;;8.47;;
12784;SDS011;6456;42.680;23.260;2024-03-22T02:12:34;10.77;;;7.67;;
12784;SDS011;6456;42.680;23.260;2024-03-22T02:15:01;15.47;;;8.40;;
12784;SDS011;6456;42.680;23.260;2024-03-22T02:17:28;15.00;;;8.73;;
12784;SDS011;6456;42.680;23.260;2024-03-22T02:19:54;14.60;;;8.27;;
12784;SDS011;6456;42.680;23.260;2024-03-22T02:22:21;14.77;;;8.27;;
12784;SDS011;6456;42.680;23.260;2024-03-22T02:24:49;13.50;;;8.17;;
12784;SDS011;6456;42.680;23.260;2024-03-22T02:27:16;10.73;;;8.10;;
12784;SDS011;6456;42.680;23.260;2024-03-22T02:29:42;13.73;;;7.50;;
12784;SDS011;6456;42.680;23.260;2024-03-22T02:32:09;12.13;;;7.73;;
12784;SDS011;6456;42.680;23.260;2024-03-22T02:34:35;12.10;;;7.97;;
12784;SDS011;6456;42.680;23.260;2024-03-22T02:37:03;13.30;;;8.10;;
12784;SDS011;6456;42.680;23.260;2024-03-22T02:39:29;14.27;;;8.63;;
12784;SDS011;6456;42.680;23.260;2024-03-22T02:41:58;12.63;;;8.60;;
12784;SDS011;6456;42.680;23.260;2024-03-22T02:44:24;15.00;;;9.03;;
12784;SDS011;6456;42.680;23.260;2024-03-22T02:46:51;13.53;;;8.27;;
12784;SDS011;6456;42.680;23.260;2024-03-22T02:49:17;13.97;;;7.93;;
12784;SDS011;6456;42.680;23.260;2024-03-22T02:51:44;14.67;;;8.87;;
12784;SDS011;6456;42.680;23.260;2024-03-22T02:54:10;13.40;;;9.90;;
12784;SDS011;6456;42.680;23.260;2024-03-22T02:56:37;18.37;;;10.10;;
12784;SDS011;6456;42.680;23.260;2024-03-22T02:59:05;14.37;;;9.10;;
12784;SDS011;6456;42.680;23.260;2024-03-22T03:01:32;15.50;;;10.57;;
12784;SDS011;6456;42.680;23.260;2024-03-22T03:03:58;13.30;;;8.50;;
12784;SDS011;6456;42.680;23.260;2024-03-22T03:06:43;15.83;;;9.03;;
12784;SDS011;6456;42.680;23.260;2024-03-22T03:09:10;13.50;;;9.60;;
12784;SDS011;6456;42.680;23.260;2024-03-22T03:11:38;16.37;;;9.47;;
12784;SDS011;6456;42.680;23.260;2024-03-22T03:14:06;16.47;;;9.67;;
12784;SDS011;6456;42.680;23.260;2024-03-22T03:16:33;14.53;;;9.30;;
12784;SDS011;6456;42.680;23.260;2024-03-22T03:18:59;16.57;;;10.00;;
12784;SDS011;6456;42.680;23.260;2024-03-22T03:21:26;18.83;;;10.53;;
12784;SDS011;6456;42.680;23.260;2024-03-22T03:23:52;17.00;;;9.90;;
12784;SDS011;6456;42.680;23.260;2024-03-22T03:26:19;18.57;;;9.33;;
12784;SDS011;6456;42.680;23.260;2024-03-22T03:28:45;13.83;;;9.53;;
12784;SDS011;6456;42.680;23.260;2024-03-22T03:31:14;18.00;;;10.20;;
12784;SDS011;6456;42.680;23.260;2024-03-22T03:33:40;17.13;;;10.13;;
12784;SDS011;6456;42.680;23.260;2024-03-22T03:36:07;13.77;;;8.43;;
12784;SDS011;6456;42.680;23.260;2024-03-22T03:38:33;11.47;;;8.63;;
12784;SDS011;6456;42.680;23.260;2024-03-22T03:41:02;12.53;;;8.73;;
12784;SDS011;6456;42.680;23.260;2024-03-22T03:43:28;12.13;;;7.00;;
12784;SDS011;6456;42.680;23.260;2024-03-22T03:45:55;11.33;;;7.60;;
12784;SDS011;6456;42.680;23.260;2024-03-22T03:48:23;11.40;;;7.30;;
12784;SDS011;6456;42.680;23.260;2024-03-22T03:50:53;11.07;;;8.40;;
12784;SDS011;6456;42.680;23.260;2024-03-22T03:53:20;17.17;;;8.30;;
12784;SDS011;6456;42.680;23.260;2024-03-22T03:55:47;11.13;;;6.83;;
12784;SDS011;6456;42.680;23.260;2024-03-22T03:58:13;12.67;;;7.87;;
12784;SDS011;6456;42.680;23.260;2024-03-22T04:00:41;11.47;;;7.30;;
12784;SDS011;6456;42.680;23.260;2024-03-22T04:03:07;13.83;;;7.17;;
12784;SDS011;6456;42.680;23.260;2024-03-22T04:05:35;10.20;;;6.93;;
12784;SDS011;6456;42.680;23.260;2024-03-22T04:08:01;9.40;;;6.83;;
12784;SDS011;6456;42.680;23.260;2024-03-22T04:10:28;11.57;;;7.37;;
12784;SDS011;6456;42.680;23.260;2024-03-22T04:12:54;13.13;;;7.47;;
12784;SDS011;6456;42.680;23.260;2024-03-22T04:15:21;14.57;;;8.27;;
12784;SDS011;6456;42.680;23.260;2024-03-22T04:17:47;11.93;;;8.00;;
12784;SDS011;6456;42.680;23.260;2024-03-22T04:20:14;12.93;;;8.23;;
12784;SDS011;6456;42.680;23.260;2024-03-22T04:22:42;11.13;;;7.43;;
12784;SDS011;6456;42.680;23.260;2024-03-22T04:25:09;12.03;;;8.00;;
12784;SDS011;6456;42.680;23.260;2024-03-22T04:27:35;12.83;;;8.87;;
12784;SDS011;6456;42.680;23.260;2024-03-22T04:30:02;22.33;;;9.43;;
12784;SDS011;6456;42.680;23.260;2024-03-22T04:32:29;15.27;;;8.83;;
12784;SDS011;6456;42.680;23.260;2024-03-22T04:34:56;12.97;;;8.73;;
12784;SDS011;6456;42.680;23.260;2024-03-22T04:37:22;13.43;;;8.20;;
12784;SDS011;6456;42.680;23.260;2024-03-22T04:39:50;20.17;;;9.40;;
12784;SDS011;6456;42.680;23.260;2024-03-22T04:42:17;17.23;;;9.10;;
12784;SDS011;6456;42.680;23.260;2024-03-22T04:44:45;16.37;;;8.97;;
12784;SDS011;6456;42.680;23.260;2024-03-22T04:47:11;15.10;;;9.17;;
12784;SDS011;6456;42.680;23.260;2024-03-22T04:49:38;15.33;;;8.87;;
12784;SDS011;6456;42.680;23.260;2024-03-22T04:52:04;13.50;;;8.20;;
12784;SDS011;6456;42.680;23.260;2024-03-22T04:54:31;18.03;;;9.30;;
12784;SDS011;6456;42.680;23.260;2024-03-22T04:56:58;17.43;;;9.30;;
12784;SDS011;6456;42.680;23.260;2024-03-22T04:59:25;18.27;;;8.53;;
12784;SDS011;6456;42.680;23.260;2024-03-22T05:01:52;26.40;;;9.77;;
12784;SDS011;6456;42.680;23.260;2024-03-22T05:04:19;25.60;;;10.53;;
12784;SDS011;6456;42.680;23.260;2024-03-22T05:06:45;24.30;;;11.27;;
12784;SDS011;6456;42.680;23.260;2024-03-22T05:09:12;16.30;;;9.40;;
12784;SDS011;6456;42.680;23.260;2024-03-22T05:11:38;21.47;;;9.93;;
12784;SDS011;6456;42.680;23.260;2024-03-22T05:14:06;17.77;;;10.07;;
12784;SDS011;6456;42.680;23.260;2024-03-22T05:16:32;15.70;;;9.77;;
12784;SDS011;6456;42.680;23.260;2024-03-22T05:18:59;18.13;;;9.43;;
12784;SDS011;6456;42.680;23.260;2024-03-22T05:21:25;17.30;;;11.27;;
12784;SDS011;6456;42.680;23.260;2024-03-22T05:23:52;25.07;;;12.83;;
12784;SDS011;6456;42.680;23.260;2024-03-22T05:26:18;34.23;;;12.40;;
12784;SDS011;6456;42.680;23.260;2024-03-22T05:28:46;22.67;;;10.93;;
12784;SDS011;6456;42.680;23.260;2024-03-22T05:31:13;33.33;;;12.47;;
12784;SDS011;6456;42.680;23.260;2024-03-22T05:33:40;24.17;;;12.30;;
12784;SDS011;6456;42.680;23.260;2024-03-22T05:36:06;27.30;;;12.57;;
12784;SDS011;6456;42.680;23.260;2024-03-22T05:38:33;21.40;;;11.63;;
12784;SDS011;6456;42.680;23.260;2024-03-22T05:41:03;27.90;;;16.43;;
12784;SDS011;6456;42.680;23.260;2024-03-22T05:43:30;24.70;;;16.03;;
12784;SDS011;6456;42.680;23.260;2024-03-22T05:45:56;26.37;;;15.33;;
12784;SDS011;6456;42.680;23.260;2024-03-22T05:48:24;26.03;;;15.43;;
12784;SDS011;6456;42.680;23.260;2024-03-22T05:50:51;25.13;;;15.53;;
12784;SDS011;6456;42.680;23.260;2024-03-22T05:53:18;27.47;;;17.27;;
12784;SDS011;6456;42.680;23.260;2024-03-22T05:55:44;34.37;;;17.17;;
12784;SDS011;6456;42.680;23.260;2024-03-22T05:58:11;36.70;;;17.63;;
12784;SDS011;6456;42.680;23.260;2024-03-22T06:00:37;30.53;;;17.33;;
12784;SDS011;6456;42.680;23.260;2024-03-22T06:03:05;31.13;;;18.27;;
12784;SDS011;6456;42.680;23.260;2024-03-22T06:05:32;29.73;;;17.73;;
12784;SDS011;6456;42.680;23.260;2024-03-22T06:07:59;30.17;;;15.10;;
12784;SDS011;6456;42.680;23.260;2024-03-22T06:10:26;28.30;;;14.83;;
12784;SDS011;6456;42.680;23.260;2024-03-22T06:12:52;21.30;;;12.67;;
12784;SDS011;6456;42.680;23.260;2024-03-22T06:15:19;19.17;;;10.87;;
12784;SDS011;6456;42.680;23.260;2024-03-22T06:17:46;18.97;;;11.30;;
12784;SDS011;6456;42.680;23.260;2024-03-22T06:20:13;20.10;;;11.00;;
12784;SDS011;6456;42.680;23.260;2024-03-22T06:22:42;27.00;;;12.47;;
12784;SDS011;6456;42.680;23.260;2024-03-22T06:25:08;17.93;;;10.43;;
12784;SDS011;6456;42.680;23.260;2024-03-22T06:27:35;18.00;;;10.07;;
12784;SDS011;6456;42.680;23.260;2024-03-22T06:30:00;21.90;;;10.50;;
12784;SDS011;6456;42.680;23.260;2024-03-22T06:32:28;17.23;;;9.77;;
12784;SDS011;6456;42.680;23.260;2024-03-22T06:34:54;15.93;;;9.23;;
12784;SDS011;6456;42.680;23.260;2024-03-22T06:37:21;17.03;;;10.13;;
12784;SDS011;6456;42.680;23.260;2024-03-22T06:39:49;20.13;;;10.97;;
12784;SDS011;6456;42.680;23.260;2024-03-22T06:42:18;17.60;;;10.00;;
12784;SDS011;6456;42.680;23.260;2024-03-22T06:44:51;17.43;;;10.57;;
12784;SDS011;6456;42.680;23.260;2024-03-22T06:47:18;14.53;;;9.80;;
12784;SDS011;6456;42.680;23.260;2024-03-22T06:49:47;17.47;;;9.70;;
12784;SDS011;6456;42.680;23.260;2024-03-22T06:52:14;22.93;;;12.00;;
12784;SDS011;6456;42.680;23.260;2024-03-22T06:54:40;23.17;;;11.97;;
12784;SDS011;6456;42.680;23.260;2024-03-22T06:57:08;20.73;;;10.80;;
12784;SDS011;6456;42.680;23.260;2024-03-22T06:59:34;17.97;;;9.83;;
12784;SDS011;6456;42.680;23.260;2024-03-22T07:02:01;19.40;;;10.87;;
12784;SDS011;6456;42.680;23.260;2024-03-22T07:04:27;23.77;;;10.80;;
12784;SDS011;6456;42.680;23.260;2024-03-22T07:06:54;21.13;;;10.63;;
12784;SDS011;6456;42.680;23.260;2024-03-22T07:09:20;21.00;;;10.20;;
12784;SDS011;6456;42.680;23.260;2024-03-22T07:11:48;21.47;;;11.07;;
12784;SDS011;6456;42.680;23.260;2024-03-22T07:14:15;17.67;;;10.87;;
12784;SDS011;6456;42.680;23.260;2024-03-22T07:16:42;20.20;;;11.53;;
12784;SDS011;6456;42.680;23.260;2024-03-22T07:19:08;20.23;;;10.33;;
12784;SDS011;6456;42.680;23.260;2024-03-22T07:21:35;17.53;;;11.00;;
12784;SDS011;6456;42.680;23.260;2024-03-22T07:24:01;15.17;;;10.63;;
12784;SDS011;6456;42.680;23.260;2024-03-22T07:26:28;16.43;;;9.77;;
12784;SDS011;6456;42.680;23.260;2024-03-22T07:28:54;29.10;;;11.37;;
12784;SDS011;6456;42.680;23.260;2024-03-22T07:31:22;21.53;;;11.03;;
12784;SDS011;6456;42.680;23.260;2024-03-22T07:33:48;22.77;;;10.07;;
12784;SDS011;6456;42.680;23.260;2024-03-22T07:36:15;15.17;;;9.90;;
12784;SDS011;6456;42.680;23.260;2024-03-22T07:38:42;15.80;;;9.63;;
12784;SDS011;6456;42.680;23.260;2024-03-22T07:41:09;19.03;;;10.67;;
12784;SDS011;6456;42.680;23.260;2024-03-22T07:43:35;30.97;;;11.63;;
12784;SDS011;6456;42.680;23.260;2024-03-22T07:46:02;17.70;;;10.30;;
12784;SDS011;6456;42.680;23.260;2024-03-22T07:48:29;15.70;;;10.00;;
12784;SDS011;6456;42.680;23.260;2024-03-22T07:50:56;24.60;;;9.63;;
12784;SDS011;6456;42.680;23.260;2024-03-22T07:53:23;19.37;;;9.30;;
12784;SDS011;6456;42.680;23.260;2024-03-22T07:55:49;16.40;;;7.77;;
12784;SDS011;6456;42.680;23.260;2024-03-22T07:58:15;11.00;;;7.17;;
12784;SDS011;6456;42.680;23.260;2024-03-22T08:00:42;13.83;;;7.70;;
12784;SDS011;6456;42.680;23.260;2024-03-22T08:03:08;13.50;;;7.63;;
12784;SDS011;6456;42.680;23.260;2024-03-22T08:05:42;13.13;;;6.87;;
12784;SDS011;6456;42.680;23.260;2024-03-22T08:08:08;15.37;;;7.03;;
12784;SDS011;6456;42.680;23.260;2024-03-22T08:10:35;10.77;;;6.30;;
12784;SDS011;6456;42.680;23.260;2024-03-22T08:13:01;15.23;;;7.27;;
12784;SDS011;6456;42.680;23.260;2024-03-22T08:15:29;8.87;;;6.03;;
12784;SDS011;6456;42.680;23.260;2024-03-22T08:17:55;24.13;;;7.10;;
12784;SDS011;6456;42.680;23.260;2024-03-22T08:20:22;9.73;;;5.43;;
12784;SDS011;6456;42.680;23.260;2024-03-22T08:22:51;6.60;;;5.37;;
12784;SDS011;6456;42.680;23.260;2024-03-22T08:25:17;8.53;;;5.60;;
12784;SDS011;6456;42.680;23.260;2024-03-22T08:27:45;10.07;;;5.77;;
12784;SDS011;6456;42.680;23.260;2024-03-22T08:30:14;7.10;;;5.10;;
12784;SDS011;6456;42.680;23.260;2024-03-22T08:32:41;9.73;;;4.93;;
12784;SDS011;6456;42.680;23.260;2024-03-22T08:35:07;6.20;;;5.00;;
12784;SDS011;6456;42.680;23.260;2024-03-22T08:37:35;7.83;;;5.10;;
12784;SDS011;6456;42.680;23.260;2024-03-22T08:40:02;8.23;;;4.53;;
12784;SDS011;6456;42.680;23.260;2024-03-22T08:42:30;7.70;;;4.07;;
12784;SDS011;6456;42.680;23.260;2024-03-22T08:44:56;5.70;;;4.43;;
12784;SDS011;6456;42.680;23.260;2024-03-22T08:47:23;5.93;;;4.20;;
12784;SDS011;6456;42.680;23.260;2024-03-22T08:49:49;7.63;;;4.17;;
12784;SDS011;6456;42.680;23.260;2024-03-22T08:52:16;6.47;;;3.70;;
12784;SDS011;6456;42.680;23.260;2024-03-22T08:54:42;7.90;;;3.70;;
12784;SDS011;6456;42.680;23.260;2024-03-22T08:57:11;9.67;;;3.67;;
12784;SDS011;6456;42.680;23.260;2024-03-22T08:59:37;16.70;;;4.67;;
12784;SDS011;6456;42.680;23.260;2024-03-22T09:02:04;10.10;;;4.20;;
12784;SDS011;6456;42.680;23.260;2024-03-22T09:04:30;4.67;;;3.20;;
12784;SDS011;6456;42.680;23.260;2024-03-22T09:06:57;4.47;;;3.53;;
12784;SDS011;6456;42.680;23.260;2024-03-22T09:09:23;4.07;;;3.60;;
12784;SDS011;6456;42.680;23.260;2024-03-22T09:11:50;5.27;;;3.70;;
12784;SDS011;6456;42.680;23.260;2024-03-22T09:14:18;5.20;;;3.57;;
12784;SDS011;6456;42.680;23.260;2024-03-22T09:16:45;5.53;;;4.50;;
12784;SDS011;6456;42.680;23.260;2024-03-22T09:19:11;8.53;;;3.57;;
12784;SDS011;6456;42.680;23.260;2024-03-22T09:21:41;6.43;;;3.10;;
12784;SDS011;6456;42.680;23.260;2024-03-22T09:24:07;6.53;;;3.67;;
12784;SDS011;6456;42.680;23.260;2024-03-22T09:26:34;15.73;;;3.87;;
12784;SDS011;6456;42.680;23.260;2024-03-22T09:29:01;7.80;;;3.53;;
12784;SDS011;6456;42.680;23.260;2024-03-22T09:31:35;4.30;;;3.20;;
12784;SDS011;6456;42.680;23.260;2024-03-22T09:34:01;6.60;;;4.03;;
12784;SDS011;6456;42.680;23.260;2024-03-22T09:36:28;7.23;;;3.70;;
12784;SDS011;6456;42.680;23.260;2024-03-22T09:39:00;19.40;;;5.53;;
12784;SDS011;6456;42.680;23.260;2024-03-22T09:41:31;6.73;;;4.23;;
12784;SDS011;6456;42.680;23.260;2024-03-22T09:43:57;4.77;;;3.40;;
12784;SDS011;6456;42.680;23.260;2024-03-22T09:46:25;6.13;;;3.70;;
12784;SDS011;6456;42.680;23.260;2024-03-22T09:48:53;4.50;;;3.47;;
12784;SDS011;6456;42.680;23.260;2024-03-22T09:51:23;6.97;;;3.70;;
12784;SDS011;6456;42.680;23.260;2024-03-22T09:53:50;8.07;;;3.60;;
12784;SDS011;6456;42.680;23.260;2024-03-22T09:56:24;4.87;;;3.30;;
12784;SDS011;6456;42.680;23.260;2024-03-22T09:58:52;4.00;;;3.57;;
12784;SDS011;6456;42.680;23.260;2024-03-22T10:01:21;12.03;;;4.47;;
12784;SDS011;6456;42.680;23.260;2024-03-22T10:03:49;6.30;;;3.60;;
12784;SDS011;6456;42.680;23.260;2024-03-22T10:06:29;3.40;;;3.10;;
12784;SDS011;6456;42.680;23.260;2024-03-22T10:09:00;4.00;;;3.20;;
12784;SDS011;6456;42.680;23.260;2024-03-22T10:11:29;9.33;;;3.50;;
12784;SDS011;6456;42.680;23.260;2024-03-22T10:13:55;10.13;;;3.27;;
12784;SDS011;6456;42.680;23.260;2024-03-22T10:16:22;13.93;;;5.50;;
12784;SDS011;6456;42.680;23.260;2024-03-22T10:18:48;4.17;;;3.77;;
12784;SDS011;6456;42.680;23.260;2024-03-22T10:21:20;9.43;;;4.30;;
12784;SDS011;6456;42.680;23.260;2024-03-22T10:23:48;5.83;;;3.40;;
12784;SDS011;6456;42.680;23.260;2024-03-22T10:26:19;6.67;;;3.73;;
12784;SDS011;6456;42.680;23.260;2024-03-22T10:28:45;5.20;;;3.30;;
12784;SDS011;6456;42.680;23.260;2024-03-22T10:31:15;4.83;;;3.27;;
12784;SDS011;6456;42.680;23.260;2024-03-22T10:36:17;3.70;;;3.27;;
12784;SDS011;6456;42.680;23.260;2024-03-22T10:38:45;4.10;;;2.97;;
12784;SDS011;6456;42.680;23.260;2024-03-22T10:41:19;8.47;;;3.90;;
12784;SDS011;6456;42.680;23.260;2024-03-22T10:43:45;12.23;;;4.37;;
12784;SDS011;6456;42.680;23.260;2024-03-22T10:46:13;3.93;;;3.53;;
12784;SDS011;6456;42.680;23.260;2024-03-22T10:48:41;8.60;;;3.63;;
12784;SDS011;6456;42.680;23.260;2024-03-22T10:51:12;7.47;;;4.33;;
12784;SDS011;6456;42.680;23.260;2024-03-22T10:53:45;6.27;;;3.37;;
12784;SDS011;6456;42.680;23.260;2024-03-22T10:56:14;7.07;;;3.47;;
12784;SDS011;6456;42.680;23.260;2024-03-22T10:58:43;3.90;;;2.90;;
12784;SDS011;6456;42.680;23.260;2024-03-22T11:01:24;4.27;;;2.90;;
12784;SDS011;6456;42.680;23.260;2024-03-22T11:03:51;7.67;;;4.00;;
12784;SDS011;6456;42.680;23.260;2024-03-22T11:06:35;11.23;;;4.03;;
12784;SDS011;6456;42.680;23.260;2024-03-22T11:09:06;6.53;;;3.27;;
12784;SDS011;6456;42.680;23.260;2024-03-22T11:11:35;14.63;;;4.03;;
12784;SDS011;6456;42.680;23.260;2024-03-22T11:14:02;7.33;;;3.60;;
12784;SDS011;6456;42.680;23.260;2024-03-22T11:16:31;5.30;;;2.77;;
12784;SDS011;6456;42.680;23.260;2024-03-22T11:18:57;3.70;;;3.00;;
12784;SDS011;6456;42.680;23.260;2024-03-22T11:21:24;6.57;;;2.90;;
12784;SDS011;6456;42.680;23.260;2024-03-22T11:23:52;3.37;;;3.07;;
12784;SDS011;6456;42.680;23.260;2024-03-22T11:26:35;4.07;;;2.63;;
12784;SDS011;6456;42.680;23.260;2024-03-22T11:29:05;4.20;;;2.87;;
12784;SDS011;6456;42.680;23.260;2024-03-22T11:31:31;12.97;;;3.70;;
12784;SDS011;6456;42.680;23.260;2024-03-22T11:33:58;4.93;;;3.17;;
12784;SDS011;6456;42.680;23.260;2024-03-22T11:36:25;5.57;;;3.33;;
12784;SDS011;6456;42.680;23.260;2024-03-22T11:38:55;4.23;;;2.70;;
12784;SDS011;6456;42.680;23.260;2024-03-22T11:41:22;4.13;;;3.30;;
12784;SDS011;6456;42.680;23.260;2024-03-22T11:43:54;7.70;;;4.10;;
12784;SDS011;6456;42.680;23.260;2024-03-22T11:46:20;8.53;;;3.43;;
12784;SDS011;6456;42.680;23.260;2024-03-22T11:48:50;3.07;;;2.77;;
12784;SDS011;6456;42.680;23.260;2024-03-22T11:51:17;7.40;;;3.20;;
12784;SDS011;6456;42.680;23.260;2024-03-22T11:53:48;6.30;;;3.20;;
12784;SDS011;6456;42.680;23.260;2024-03-22T11:56:17;4.70;;;3.40;;
12784;SDS011;6456;42.680;23.260;2024-03-22T11:58:45;5.17;;;3.03;;
12784;SDS011;6456;42.680;23.260;2024-03-22T12:01:14;4.03;;;2.93;;
12784;SDS011;6456;42.680;23.260;2024-03-22T12:03:43;4.10;;;3.13;;
12784;SDS011;6456;42.680;23.260;2024-03-22T12:06:09;4.33;;;3.30;;
12784;SDS011;6456;42.680;23.260;2024-03-22T12:08:37;7.03;;;3.40;;
12784;SDS011;6456;42.680;23.260;2024-03-22T12:11:06;16.13;;;5.70;;
12784;SDS011;6456;42.680;23.260;2024-03-22T12:13:35;7.50;;;3.00;;
12784;SDS011;6456;42.680;23.260;2024-03-22T12:16:02;4.40;;;3.23;;
12784;SDS011;6456;42.680;23.260;2024-03-22T12:18:32;3.07;;;2.67;;
12784;SDS011;6456;42.680;23.260;2024-03-22T12:20:59;7.10;;;2.90;;
12784;SDS011;6456;42.680;23.260;2024-03-22T12:23:26;7.07;;;3.30;;
12784;SDS011;6456;42.680;23.260;2024-03-22T12:25:52;5.47;;;3.27;;
12784;SDS011;6456;42.680;23.260;2024-03-22T12:28:21;4.93;;;3.10;;
12784;SDS011;6456;42.680;23.260;2024-03-22T12:30:47;6.37;;;3.07;;
12784;SDS011;6456;42.680;23.260;2024-03-22T12:33:14;5.73;;;3.30;;
12784;SDS011;6456;42.680;23.260;2024-03-22T12:35:42;4.60;;;3.20;;
12784;SDS011;6456;42.680;23.260;2024-03-22T12:38:09;3.50;;;2.73;;
12784;SDS011;6456;42.680;23.260;2024-03-22T12:40:37;3.70;;;2.87;;
12784;SDS011;6456;42.680;23.260;2024-03-22T12:43:04;3.80;;;3.20;;
12784;SDS011;6456;42.680;23.260;2024-03-22T12:45:31;4.57;;;3.00;;
12784;SDS011;6456;42.680;23.260;2024-03-22T12:47:58;3.57;;;2.80;;
12784;SDS011;6456;42.680;23.260;2024-03-22T12:50:24;4.73;;;2.60;;
12784;SDS011;6456;42.680;23.260;2024-03-22T12:52:54;7.73;;;3.83;;
12784;SDS011;6456;42.680;23.260;2024-03-22T12:55:20;8.77;;;3.37;;
12784;SDS011;6456;42.680;23.260;2024-03-22T12:57:47;11.53;;;3.73;;
12784;SDS011;6456;42.680;23.260;2024-03-22T13:00:13;9.43;;;3.27;;
12784;SDS011;6456;42.680;23.260;2024-03-22T13:02:43;7.10;;;3.27;;
12784;SDS011;6456;42.680;23.260;2024-03-22T13:05:10;4.50;;;2.80;;
12784;SDS011;6456;42.680;23.260;2024-03-22T13:07:37;13.23;;;3.80;;
12784;SDS011;6456;42.680;23.260;2024-03-22T13:10:05;9.43;;;3.43;;
12784;SDS011;6456;42.680;23.260;2024-03-22T13:12:33;7.93;;;4.00;;
12784;SDS011;6456;42.680;23.260;2024-03-22T13:14:59;4.87;;;2.93;;
12784;SDS011;6456;42.680;23.260;2024-03-22T13:17:27;11.93;;;3.67;;
12784;SDS011;6456;42.680;23.260;2024-03-22T13:19:53;8.50;;;3.47;;
12784;SDS011;6456;42.680;23.260;2024-03-22T13:22:20;5.23;;;3.03;;
12784;SDS011;6456;42.680;23.260;2024-03-22T13:24:46;12.13;;;4.60;;
12784;SDS011;6456;42.680;23.260;2024-03-22T13:27:17;8.70;;;3.60;;
12784;SDS011;6456;42.680;23.260;2024-03-22T13:29:54;11.67;;;3.17;;
12784;SDS011;6456;42.680;23.260;2024-03-22T13:32:22;4.47;;;3.30;;
12784;SDS011;6456;42.680;23.260;2024-03-22T13:34:48;3.70;;;3.13;;
12784;SDS011;6456;42.680;23.260;2024-03-22T13:37:16;7.20;;;3.00;;
12784;SDS011;6456;42.680;23.260;2024-03-22T13:39:42;9.97;;;3.50;;
12784;SDS011;6456;42.680;23.260;2024-03-22T13:42:09;3.73;;;2.90;;
12784;SDS011;6456;42.680;23.260;2024-03-22T13:44:38;8.23;;;3.30;;
12784;SDS011;6456;42.680;23.260;2024-03-22T13:47:05;8.23;;;3.10;;
12784;SDS011;6456;42.680;23.260;2024-03-22T13:49:32;5.77;;;3.20;;
12784;SDS011;6456;42.680;23.260;2024-03-22T13:51:58;9.07;;;3.00;;
12784;SDS011;6456;42.680;23.260;2024-03-22T13:54:25;6.73;;;3.13;;
12784;SDS011;6456;42.680;23.260;2024-03-22T13:56:51;10.50;;;3.17;;
12784;SDS011;6456;42.680;23.260;2024-03-22T13:59:20;7.13;;;3.07;;
12784;SDS011;6456;42.680;23.260;2024-03-22T14:01:47;6.63;;;3.17;;
12784;SDS011;6456;42.680;23.260;2024-03-22T14:04:15;4.43;;;3.70;;
12784;SDS011;6456;42.680;23.260;2024-03-22T14:06:42;3.67;;;3.10;;
12784;SDS011;6456;42.680;23.260;2024-03-22T14:09:08;3.30;;;2.83;;
12784;SDS011;6456;42.680;23.260;2024-03-22T14:11:38;5.73;;;3.50;;
12784;SDS011;6456;42.680;23.260;2024-03-22T14:14:04;4.47;;;2.93;;
12784;SDS011;6456;42.680;23.260;2024-03-22T14:16:32;4.27;;;3.03;;
12784;SDS011;6456;42.680;23.260;2024-03-22T14:19:00;25.30;;;4.80;;
12784;SDS011;6456;42.680;23.260;2024-03-22T14:21:27;3.77;;;3.27;;
12784;SDS011;6456;42.680;23.260;2024-03-22T14:23:53;4.67;;;3.43;;
12784;SDS011;6456;42.680;23.260;2024-03-22T14:26:20;5.07;;;3.63;;
12784;SDS011;6456;42.680;23.260;2024-03-22T14:28:48;4.27;;;3.03;;
12784;SDS011;6456;42.680;23.260;2024-03-22T14:31:17;3.30;;;3.00;;
12784;SDS011;6456;42.680;23.260;2024-03-22T14:33:54;3.03;;;2.57;;
12784;SDS011;6456;42.680;23.260;2024-03-22T14:36:22;4.00;;;3.20;;
12784;SDS011;6456;42.680;23.260;2024-03-22T14:38:48;9.23;;;3.70;;
12784;SDS011;6456;42.680;23.260;2024-03-22T14:41:15;6.07;;;3.13;;